Time;durP1;ratioP1;P1;durP2;ratioP2;P2;SDS_P1;SDS_P2;PMS_P1;PMS_P2;Temp;Humidity;BMP_temperature;BMP_pressure;BME280_temperature;BME280_humidity;BME280_pressure;Samples;Min_cycle;Max_cycle;Signal;HPM_P1;HPM_P2
2022/08/27 00:01:40;;;;;;;6.85;2.30;;;17.60;99.90;;;;;;4953045;29;20063;-61
2022/08/27 00:04:06;;;;;;;9.13;2.35;;;17.50;99.90;;;;;;4953178;29;20043;-61
2022/08/27 00:06:35;;;;;;;9.10;2.40;;;17.70;99.90;;;;;;4952979;28;20098;-63
2022/08/27 00:09:02;;;;;;;7.75;2.20;;;17.00;99.90;;;;;;4953028;29;20412;-62
2022/08/27 00:11:29;;;;;;;8.52;2.63;;;17.40;99.90;;;;;;4952940;29;20122;-61
2022/08/27 00:13:55;;;;;;;7.45;2.63;;;18.50;99.90;;;;;;4953024;29;20119;-62
2022/08/27 00:16:21;;;;;;;9.15;2.40;;;17.10;99.90;;;;;;4952907;29;20563;-62
2022/08/27 00:18:48;;;;;;;6.75;2.33;;;18.00;99.90;;;;;;4952918;29;20043;-62
2022/08/27 00:21:15;;;;;;;8.80;2.30;;;17.50;99.90;;;;;;4952880;29;20423;-62
2022/08/27 00:23:41;;;;;;;9.35;2.78;;;;;;;;;;4952855;29;20036;-62
2022/08/27 00:26:07;;;;;;;7.25;2.40;;;18.60;99.90;;;;;;4920872;29;20063;-62
2022/08/27 00:28:34;;;;;;;6.57;2.20;;;17.50;99.90;;;;;;4953979;29;20597;-62
2022/08/27 00:31:00;;;;;;;6.20;2.30;;;17.60;99.90;;;;;;4954741;28;20031;-62
2022/08/27 00:33:26;;;;;;;7.68;2.25;;;;;;;;;;4954944;28;20125;-62
2022/08/27 00:35:55;;;;;;;8.32;2.38;;;17.50;99.90;;;;;;4954800;28;20035;-60
2022/08/27 00:38:21;;;;;;;8.70;2.33;;;16.70;99.90;;;;;;4954977;28;20049;-60
2022/08/27 00:40:48;;;;;;;8.00;2.50;;;17.40;99.90;;;;;;4954759;28;20054;-60
2022/08/27 00:43:24;;;;;;;8.45;2.40;;;16.60;99.90;;;;;;4969519;28;20047;-60
2022/08/27 00:45:54;;;;;;;8.23;2.40;;;17.20;99.90;;;;;;4955036;28;20114;-60
2022/08/27 00:48:24;;;;;;;10.10;2.60;;;17.30;99.90;;;;;;4954843;28;20476;-60
2022/08/27 00:50:54;;;;;;;6.57;2.45;;;17.40;99.90;;;;;;4954838;28;20047;-63
2022/08/27 00:53:24;;;;;;;7.15;2.40;;;17.20;99.90;;;;;;4954552;28;20170;-60
2022/08/27 00:56:01;;;;;;;6.07;2.42;;;17.50;99.90;;;;;;4953645;29;20101;-62
2022/08/27 00:58:34;;;;;;;5.40;2.35;;;17.30;99.90;;;;;;4969547;28;20055;-62
2022/08/27 01:01:00;;;;;;;9.30;2.70;;;16.30;99.90;;;;;;4937737;29;20392;-61
2022/08/27 01:03:26;;;;;;;10.15;2.38;;;17.20;99.90;;;;;;4954462;28;20039;-60
2022/08/27 01:05:55;;;;;;;9.00;2.60;;;16.90;99.90;;;;;;4954564;29;20118;-60
2022/08/27 01:08:27;;;;;;;8.52;2.40;;;17.10;99.90;;;;;;4954486;28;20043;-60
2022/08/27 01:10:56;;;;;;;6.38;2.58;;;18.00;99.90;;;;;;4954628;28;20039;-60
2022/08/27 01:13:25;;;;;;;7.88;2.55;;;16.60;99.90;;;;;;4954629;28;20051;-60
2022/08/27 01:15:57;;;;;;;8.38;2.53;;;;;;;;;;4954598;28;20050;-60
2022/08/27 01:18:27;;;;;;;7.20;2.28;;;17.10;99.90;;;;;;4956384;28;20043;-60
2022/08/27 01:21:16;;;;;;;9.38;2.40;;;17.00;99.90;;;;;;4958099;28;20039;-60
2022/08/27 01:23:47;;;;;;;5.95;2.03;;;17.90;99.90;;;;;;4958110;28;20047;-60
2022/08/27 01:26:16;;;;;;;6.57;2.33;;;16.90;99.90;;;;;;4974862;28;20074;-60
2022/08/27 01:28:45;;;;;;;7.50;2.20;;;16.80;99.90;;;;;;4977426;28;20039;-60
2022/08/27 01:31:11;;;;;;;5.72;2.38;;;16.90;99.90;;;;;;4977118;28;20078;-61
2022/08/27 01:33:38;;;;;;;6.97;2.10;;;16.90;99.90;;;;;;4976818;28;20479;-60
2022/08/27 01:36:05;;;;;;;4.88;2.10;;;17.10;99.90;;;;;;4977281;28;20109;-61
2022/08/27 01:38:32;;;;;;;5.53;2.28;;;16.80;99.90;;;;;;4975499;28;20085;-60
2022/08/27 01:41:01;;;;;;;5.85;2.30;;;16.80;99.90;;;;;;4977020;28;20500;-61
2022/08/27 01:43:29;;;;;;;7.13;2.75;;;16.70;99.90;;;;;;4977003;28;20101;-59
2022/08/27 01:45:55;;;;;;;8.77;2.65;;;17.40;99.90;;;;;;4976875;28;20042;-58
2022/08/27 01:48:21;;;;;;;5.20;2.20;;;16.70;99.90;;;;;;4977036;28;20498;-59
2022/08/27 01:50:47;;;;;;;6.78;2.30;;;16.60;99.90;;;;;;4976372;28;20491;-58
2022/08/27 01:53:23;;;;;;;9.25;2.30;;;16.80;99.90;;;;;;4976697;28;20487;-59
2022/08/27 01:55:50;;;;;;;6.38;2.35;;;16.70;99.90;;;;;;4976869;28;20122;-59
2022/08/27 01:58:18;;;;;;;9.30;2.70;;;16.30;99.90;;;;;;4976627;28;20038;-59
2022/08/27 02:00:47;;;;;;;8.32;2.60;;;15.70;99.90;;;;;;4975513;28;20051;-59
2022/08/27 02:03:17;;;;;;;6.97;2.70;;;16.90;99.90;;;;;;4959557;28;20054;-60
2022/08/27 02:05:45;;;;;;;7.18;2.33;;;16.80;99.90;;;;;;4976664;28;20053;-58
2022/08/27 02:08:14;;;;;;;6.28;2.40;;;16.70;99.90;;;;;;4976704;28;20460;-58
2022/08/27 02:10:42;;;;;;;6.07;2.40;;;17.10;99.90;;;;;;4977038;28;20101;-58
2022/08/27 02:13:08;;;;;;;7.72;2.40;;;16.70;99.90;;;;;;4976858;28;20049;-58
2022/08/27 02:15:37;;;;;;;7.95;2.50;;;16.80;99.90;;;;;;4976680;28;20045;-58
2022/08/27 02:18:06;;;;;;;6.85;2.40;;;16.60;99.90;;;;;;4975854;28;20062;-58
2022/08/27 02:20:33;;;;;;;7.00;2.35;;;16.70;99.90;;;;;;4976339;28;20472;-58
2022/08/27 02:23:00;;;;;;;7.55;2.50;;;16.90;99.90;;;;;;4959292;28;20057;-60
2022/08/27 02:25:27;;;;;;;6.13;2.30;;;16.60;99.90;;;;;;4976027;28;20094;-60
2022/08/27 02:27:54;;;;;;;9.50;2.67;;;15.70;99.90;;;;;;4976360;28;20039;-60
2022/08/27 02:30:21;;;;;;;9.23;2.40;;;16.60;99.90;;;;;;4974936;28;20053;-60
2022/08/27 02:32:51;;;;;;;9.23;2.80;;;16.60;99.90;;;;;;4976286;28;20494;-60
2022/08/27 02:35:19;;;;;;;9.15;2.40;;;16.50;99.90;;;;;;4976101;28;20101;-60
2022/08/27 02:37:47;;;;;;;6.70;2.65;;;16.50;99.90;;;;;;4976270;28;20321;-61
2022/08/27 02:40:16;;;;;;;8.57;2.50;;;16.60;99.90;;;;;;4975833;28;20038;-60
2022/08/27 02:42:43;;;;;;;7.22;2.63;;;16.40;99.90;;;;;;4976095;28;20100;-60
2022/08/27 02:45:09;;;;;;;8.23;2.42;;;;;;;;;;4975121;28;20055;-61
2022/08/27 02:47:35;;;;;;;6.32;2.47;;;16.50;99.90;;;;;;4975807;28;20085;-60
2022/08/27 02:50:02;;;;;;;5.80;2.60;;;16.30;99.90;;;;;;4975042;28;20153;-60
2022/08/27 02:52:28;;;;;;;9.20;2.40;;;16.40;99.90;;;;;;4975565;28;20043;-60
2022/08/27 02:54:55;;;;;;;8.48;2.75;;;16.30;99.90;;;;;;4975953;28;20089;-60
2022/08/27 02:57:22;;;;;;;9.75;2.60;;;16.30;99.90;;;;;;4975579;28;20039;-60
2022/08/27 02:59:49;;;;;;;5.43;2.60;;;16.30;99.90;;;;;;4975726;28;20051;-60
2022/08/27 03:02:15;;;;;;;6.53;2.35;;;16.20;99.90;;;;;;4975994;28;20038;-60
2022/08/27 03:04:41;;;;;;;7.82;2.83;;;;;;;;;;4975726;28;20039;-60
2022/08/27 03:07:07;;;;;;;5.85;2.70;;;16.10;99.90;;;;;;4975387;28;20053;-60
2022/08/27 03:09:33;;;;;;;5.35;2.33;;;15.80;99.90;;;;;;4975667;28;20117;-60
2022/08/27 03:11:59;;;;;;;6.85;2.70;;;14.80;99.90;;;;;;4958221;28;20050;-60
2022/08/27 03:14:25;;;;;;;7.45;2.53;;;16.10;99.90;;;;;;4975422;28;20030;-60
2022/08/27 03:16:50;;;;;;;5.82;2.38;;;17.00;99.90;;;;;;4975377;28;20368;-60
2022/08/27 03:19:16;;;;;;;12.35;2.40;;;;;;;;;;4974122;28;20484;-60
2022/08/27 03:21:45;;;;;;;9.95;2.83;;;15.60;99.90;;;;;;4957899;28;20403;-60
2022/08/27 03:24:12;;;;;;;7.65;2.72;;;16.00;99.90;;;;;;4975251;28;20078;-60
2022/08/27 03:26:38;;;;;;;6.82;2.50;;;15.80;99.90;;;;;;4975252;28;20043;-60
2022/08/27 03:29:04;;;;;;;7.85;2.70;;;15.90;99.90;;;;;;4975205;28;20157;-60
2022/08/27 03:31:30;;;;;;;7.45;2.50;;;14.70;99.90;;;;;;4974974;28;20126;-60
2022/08/27 03:34:01;;;;;;;6.15;2.60;;;16.00;99.90;;;;;;4975103;28;20118;-60
2022/08/27 03:36:30;;;;;;;7.63;2.80;;;15.90;99.90;;;;;;4974163;28;20065;-60
2022/08/27 03:38:57;;;;;;;7.68;2.70;;;;;;;;;;4973851;28;20050;-60
2022/08/27 03:41:23;;;;;;;7.90;2.50;;;16.80;99.90;;;;;;4974864;28;20081;-60
2022/08/27 03:43:51;;;;;;;9.20;2.70;;;15.90;99.90;;;;;;4974916;28;20088;-60
2022/08/27 03:46:19;;;;;;;7.47;2.63;;;15.30;99.90;;;;;;4974729;28;20089;-60
2022/08/27 03:48:45;;;;;;;7.82;2.50;;;15.60;99.90;;;;;;4974641;28;20038;-62
2022/08/27 03:51:13;;;;;;;6.22;2.55;;;15.60;99.90;;;;;;4974819;28;20045;-60
2022/08/27 03:53:42;;;;;;;7.18;2.30;;;16.30;99.90;;;;;;4974105;28;20503;-60
2022/08/27 03:56:10;;;;;;;6.63;2.40;;;15.70;99.90;;;;;;4972575;28;20138;-60
2022/08/27 03:58:37;;;;;;;7.70;2.70;;;15.80;99.90;;;;;;4972724;28;20124;-60
2022/08/27 04:01:04;;;;;;;6.38;2.72;;;15.70;99.90;;;;;;4972816;28;20125;-60
2022/08/27 04:03:31;;;;;;;6.55;2.10;;;16.10;99.90;;;;;;4972399;28;20131;-60
2022/08/27 04:05:58;;;;;;;9.43;2.60;;;15.40;99.90;;;;;;4972450;28;20157;-61
2022/08/27 04:08:24;;;;;;;8.40;2.40;;;14.30;99.90;;;;;;4973015;28;20102;-60
2022/08/27 04:10:54;;;;;;;9.65;2.25;;;15.70;99.90;;;;;;4974474;28;20046;-60
2022/08/27 04:13:21;;;;;;;5.32;2.30;;;16.70;99.90;;;;;;4974594;28;20042;-60
2022/08/27 04:15:49;;;;;;;6.78;2.50;;;15.80;99.90;;;;;;4974159;28;20049;-60
2022/08/27 04:18:16;;;;;;;7.63;2.67;;;16.40;99.90;;;;;;4974588;28;20039;-60
2022/08/27 04:20:43;;;;;;;6.18;2.28;;;15.50;99.90;;;;;;4974506;28;20038;-60
2022/08/27 04:23:09;;;;;;;6.78;2.60;;;15.60;99.90;;;;;;4974430;28;20050;-60
2022/08/27 04:25:42;;;;;;;6.57;2.53;;;15.40;99.90;;;;;;4953883;29;20059;-60
2022/08/27 04:28:08;;;;;;;5.25;2.50;;;15.40;99.90;;;;;;4955081;28;20407;-60
2022/08/27 04:30:39;;;;;;;7.32;2.50;;;15.50;99.90;;;;;;4954768;29;20083;-60
2022/08/27 04:33:05;;;;;;;6.63;2.28;;;;;;;;;;4955289;28;20051;-60
2022/08/27 04:35:31;;;;;;;5.75;2.50;;;;;;;;;;4954760;29;20039;-60
2022/08/27 04:38:00;;;;;;;6.80;2.63;;;15.50;99.90;;;;;;4954929;28;20205;-60
2022/08/27 04:41:18;;;;;;;5.68;2.55;;;;;;;;;;4954861;28;20035;-60
2022/08/27 04:43:14;;;;;;;;;;;15.30;99.90;;;;;;4955198;29;20051;-60
2022/08/27 04:45:44;;;;;;;7.30;2.53;;;15.40;99.90;;;;;;4954730;28;20354;-60
2022/08/27 04:48:15;;;;;;;5.78;2.50;;;14.60;99.90;;;;;;4955076;28;20047;-60
2022/08/27 04:50:45;;;;;;;8.95;2.50;;;14.80;99.90;;;;;;4954693;28;20055;-60
2022/08/27 04:53:13;;;;;;;6.78;2.40;;;16.20;99.90;;;;;;4956263;28;20558;-58
2022/08/27 04:55:44;;;;;;;6.82;2.88;;;15.20;99.90;;;;;;4958460;28;20039;-58
2022/08/27 04:58:10;;;;;;;7.13;2.58;;;;;;;;;;4958414;28;20110;-58
2022/08/27 05:00:45;;;;;;;9.35;2.58;;;15.30;99.90;;;;;;4958545;29;20039;-58
2022/08/27 05:03:11;;;;;;;5.43;2.35;;;;;;;;;;4958464;28;20075;-58
2022/08/27 05:05:36;;;;;;;7.22;2.13;;;15.30;99.90;;;;;;4958618;29;20070;-58
2022/08/27 05:08:03;;;;;;;5.65;2.40;;;15.70;99.90;;;;;;4958272;29;20039;-58
2022/08/27 05:10:31;;;;;;;8.00;2.42;;;;;;;;;;4958266;28;20126;-58
2022/08/27 05:12:56;;;;;;;9.23;2.60;;;15.40;99.90;;;;;;4958131;28;20566;-58
2022/08/27 05:15:22;;;;;;;7.95;2.63;;;;;;;;;;4958209;29;20039;-58
2022/08/27 05:17:48;;;;;;;4.45;2.22;;;;;;;;;;4958370;29;20043;-58
2022/08/27 05:20:14;;;;;;;8.18;2.55;;;15.40;99.90;;;;;;4958081;29;20046;-60
2022/08/27 05:22:41;;;;;;;7.75;2.42;;;15.50;99.90;;;;;;4958031;28;20047;-60
2022/08/27 05:25:07;;;;;;;6.80;2.53;;;15.50;99.90;;;;;;4966072;28;20091;-61
2022/08/27 05:27:33;;;;;;;7.32;2.42;;;;;;;;;;4977596;28;20109;-58
2022/08/27 05:29:59;;;;;;;6.18;2.45;;;15.50;99.90;;;;;;4977187;28;20487;-58
2022/08/27 05:32:25;;;;;;;8.77;2.80;;;15.60;99.90;;;;;;4977152;28;20043;-58
2022/08/27 05:34:51;;;;;;;8.65;2.53;;;;;;;;;;4977165;28;20042;-59
2022/08/27 05:37:20;;;;;;;7.88;2.38;;;15.70;99.90;;;;;;4977097;28;20105;-58
2022/08/27 05:39:46;;;;;;;6.03;2.63;;;15.80;99.90;;;;;;4977270;28;20042;-59
2022/08/27 05:42:12;;;;;;;7.65;2.72;;;;;;;;;;4976885;28;20046;-59
2022/08/27 05:44:39;;;;;;;8.25;2.50;;;16.00;99.90;;;;;;4976933;28;20046;-59
2022/08/27 05:47:05;;;;;;;7.43;2.60;;;16.50;99.90;;;;;;4977049;28;20166;-58
2022/08/27 05:49:31;;;;;;;5.68;2.20;;;;;;;;;;4976926;28;20121;-58
2022/08/27 05:51:57;;;;;;;5.20;2.55;;;18.50;99.90;;;;;;4976944;28;20046;-59
2022/08/27 05:54:22;;;;;;;8.57;2.53;;;19.80;99.90;;;;;;4976930;28;20053;-59
2022/08/27 05:56:49;;;;;;;6.30;2.40;;;20.60;99.90;;;;;;4976875;28;20506;-59
2022/08/27 06:01:59;;;;;;;6.78;2.25;;;21.60;99.90;;;;;;4976638;28;20043;-59
2022/08/27 06:04:25;;;;;;;6.50;2.10;;;22.80;99.90;;;;;;4976152;28;20047;-60
2022/08/27 06:06:51;;;;;;;8.63;2.50;;;23.00;99.90;;;;;;4976706;28;20406;-60
2022/08/27 06:09:22;;;;;;;8.40;2.53;;;23.60;99.90;;;;;;4976629;28;20054;-60
2022/08/27 06:11:48;;;;;;;6.60;2.20;;;24.00;98.20;;;;;;4976447;28;20491;-60
2022/08/27 06:14:14;;;;;;;6.80;2.40;;;23.20;99.90;;;;;;4976522;28;20054;-60
2022/08/27 06:16:40;;;;;;;7.20;2.65;;;24.00;99.90;;;;;;4976291;28;20061;-59
2022/08/27 06:19:08;;;;;;;6.63;2.25;;;23.00;99.00;;;;;;4976518;28;20118;-59
2022/08/27 06:21:34;;;;;;;7.20;2.25;;;22.20;99.90;;;;;;4976500;28;20434;-59
2022/08/27 06:24:00;;;;;;;10.50;2.40;;;21.90;99.90;;;;;;4976444;28;20039;-59
2022/08/27 06:26:27;;;;;;;5.72;2.45;;;22.00;99.90;;;;;;4975991;28;20050;-59
2022/08/27 06:28:53;;;;;;;7.88;2.30;;;21.50;99.90;;;;;;4958986;28;20043;-59
2022/08/27 06:31:24;;;;;;;5.88;2.45;;;21.80;99.90;;;;;;4975974;28;20039;-59
2022/08/27 06:33:51;;;;;;;5.88;2.20;;;21.80;99.90;;;;;;4975998;28;20562;-59
2022/08/27 06:36:21;;;;;;;8.18;2.10;;;21.70;99.90;;;;;;4975773;28;20047;-60
2022/08/27 06:38:48;;;;;;;4.75;2.00;;;21.40;99.90;;;;;;4975857;28;20490;-60
2022/08/27 06:41:16;;;;;;;8.07;2.10;;;21.20;99.90;;;;;;4975963;28;20093;-60
2022/08/27 06:43:42;;;;;;;6.10;2.20;;;21.00;99.90;;;;;;4976394;28;20057;-60
2022/08/27 06:46:12;;;;;;;8.50;2.17;;;20.90;99.90;;;;;;4976116;28;20047;-60
2022/08/27 06:48:40;;;;;;;6.05;2.17;;;20.90;99.90;;;;;;4975947;28;20114;-60
2022/08/27 06:51:17;;;;;;;6.78;2.30;;;20.80;99.90;;;;;;4975909;28;20039;-60
2022/08/27 06:53:46;;;;;;;7.50;2.10;;;20.80;99.90;;;;;;4958682;28;20043;-60
2022/08/27 06:56:13;;;;;;;5.53;2.30;;;20.70;99.90;;;;;;4975682;28;20050;-61
2022/08/27 06:58:40;;;;;;;8.68;2.03;;;20.60;99.90;;;;;;4975535;28;20035;-60
2022/08/27 07:01:14;;;;;;;7.35;2.30;;;20.00;99.90;;;;;;4970862;28;20089;-61
2022/08/27 07:03:42;;;;;;;7.57;2.13;;;21.00;99.90;;;;;;4973659;28;20400;-61
2022/08/27 07:06:13;;;;;;;5.63;2.20;;;20.90;99.90;;;;;;4974088;28;20398;-61
2022/08/27 07:08:39;;;;;;;8.05;2.20;;;21.50;99.90;;;;;;4974324;28;20042;-61
2022/08/27 07:11:09;;;;;;;9.57;2.20;;;21.20;99.90;;;;;;4974157;28;20047;-60
2022/08/27 07:13:38;;;;;;;8.40;2.40;;;21.20;99.90;;;;;;4974324;28;20042;-60
2022/08/27 07:16:12;;;;;;;6.03;2.10;;;22.00;99.90;;;;;;4955967;28;20049;-60
2022/08/27 07:18:41;;;;;;;7.50;2.50;;;21.90;99.90;;;;;;4974613;28;20431;-59
2022/08/27 07:21:08;;;;;;;6.97;2.00;;;22.60;99.90;;;;;;4973801;28;20042;-59
2022/08/27 07:23:35;;;;;;;7.80;2.13;;;22.60;99.90;;;;;;4957071;28;20046;-59
2022/08/27 07:26:06;;;;;;;5.15;2.10;;;23.20;99.90;;;;;;4974011;28;20062;-60
2022/08/27 07:28:33;;;;;;;9.13;2.40;;;23.90;99.90;;;;;;4974308;28;20089;-59
2022/08/27 07:30:58;;;;;;;6.75;2.05;;;24.80;99.30;;;;;;4974331;28;20062;-60
2022/08/27 07:33:24;;;;;;;7.75;2.00;;;24.80;95.70;;;;;;4973791;28;20125;-60
2022/08/27 07:35:51;;;;;;;5.00;2.00;;;25.80;91.90;;;;;;4974190;28;20035;-60
2022/08/27 07:38:18;;;;;;;6.82;1.98;;;27.60;91.30;;;;;;4973969;28;20094;-60
2022/08/27 07:40:44;;;;;;;5.15;2.00;;;27.30;83.60;;;;;;4974147;28;20479;-60
2022/08/27 07:45:57;;;;;;;4.72;1.80;;;28.80;74.30;;;;;;4974010;28;20058;-61
2022/08/27 07:48:23;;;;;;;4.85;2.05;;;29.40;75.60;;;;;;4973342;28;20153;-61
2022/08/27 07:50:50;;;;;;;7.13;1.98;;;29.30;68.30;;;;;;4974150;28;20053;-61
2022/08/27 07:53:16;;;;;;;8.05;2.10;;;29.30;66.40;;;;;;4956502;28;20047;-62
2022/08/27 07:55:42;;;;;;;8.20;2.17;;;28.40;65.60;;;;;;4974317;28;20447;-61
2022/08/27 07:58:08;;;;;;;6.28;1.92;;;26.90;76.20;;;;;;4973644;28;20034;-61
2022/08/27 08:00:34;;;;;;;8.55;2.10;;;26.80;69.30;;;;;;4956527;28;20399;-61
2022/08/27 08:03:00;;;;;;;6.13;2.17;;;25.40;77.50;;;;;;4973450;28;20402;-61
2022/08/27 08:05:26;;;;;;;7.55;1.88;;;25.20;73.10;;;;;;4973639;28;20066;-61
2022/08/27 08:07:52;;;;;;;8.90;1.90;;;24.00;84.10;;;;;;4973994;28;20039;-61
2022/08/27 08:10:21;;;;;;;5.72;2.10;;;24.00;77.70;;;;;;4956239;28;20518;-61
2022/08/27 08:12:47;;;;;;;7.78;2.30;;;23.70;89.60;;;;;;4972954;28;20149;-61
2022/08/27 08:15:16;;;;;;;6.03;2.45;;;23.80;81.80;;;;;;4955254;28;20074;-61
2022/08/27 08:17:42;;;;;;;7.85;1.95;;;24.00;82.00;;;;;;4972551;28;20069;-61
2022/08/27 08:20:10;;;;;;;7.53;2.00;;;23.60;87.30;;;;;;4973289;28;20039;-61
2022/08/27 08:22:36;;;;;;;6.90;2.20;;;23.70;81.00;;;;;;4974068;28;20130;-61
2022/08/27 08:25:03;;;;;;;6.55;2.10;;;23.80;90.30;;;;;;4974028;28;20525;-61
2022/08/27 08:27:31;;;;;;;6.72;2.10;;;23.20;83.90;;;;;;4974195;28;20053;-61
2022/08/27 08:30:01;;;;;;;7.75;2.33;;;23.10;92.30;;;;;;4974065;28;20550;-61
2022/08/27 08:32:30;;;;;;;9.63;2.30;;;22.30;91.20;;;;;;4973934;28;20415;-61
2022/08/27 08:34:58;;;;;;;10.45;2.17;;;22.30;87.80;;;;;;4957107;28;20045;-62
2022/08/27 08:37:24;;;;;;;9.27;2.00;;;21.80;93.00;;;;;;4972892;28;20043;-62
2022/08/27 08:39:50;;;;;;;11.43;2.45;;;21.80;90.40;;;;;;4974123;28;20043;-61
2022/08/27 08:42:40;;;;;;;5.53;2.20;;;21.70;95.10;;;;;;4974078;28;20126;-61
2022/08/27 08:45:10;;;;;;;6.22;2.83;;;21.70;96.10;;;;;;4974198;28;20043;-61
2022/08/27 08:47:45;;;;;;;5.82;2.00;;;21.80;92.80;;;;;;4956786;28;20125;-61
2022/08/27 08:50:38;;;;;;;8.40;2.22;;;22.20;92.80;;;;;;4974093;28;20043;-61
2022/08/27 08:53:18;;;;;;;7.90;2.17;;;22.50;91.70;;;;;;4973800;28;20126;-62
2022/08/27 08:55:50;;;;;;;7.93;2.25;;;22.90;96.10;;;;;;4972977;28;20507;-61
2022/08/27 08:58:33;;;;;;;13.02;2.45;;;22.30;95.20;;;;;;4974146;28;20081;-61
2022/08/27 09:01:03;;;;;;;8.73;2.22;;;22.50;92.60;;;;;;4974134;28;20484;-60
2022/08/27 09:03:32;;;;;;;7.07;2.17;;;23.50;95.10;;;;;;4973603;28;20121;-61
2022/08/27 09:06:15;;;;;;;6.53;2.30;;;22.80;91.60;;;;;;4974161;28;20122;-61
2022/08/27 09:08:42;;;;;;;8.52;2.15;;;22.80;92.10;;;;;;4974107;28;20105;-62
2022/08/27 09:11:14;;;;;;;7.78;2.33;;;22.40;96.30;;;;;;4956276;28;20110;-62
2022/08/27 09:13:54;;;;;;;9.68;2.40;;;22.30;92.90;;;;;;4973817;28;20463;-62
2022/08/27 09:16:22;;;;;;;12.82;2.83;;;21.90;98.50;;;;;;4974052;28;20094;-62
2022/08/27 09:18:48;;;;;;;10.65;2.67;;;21.90;94.00;;;;;;4956718;28;20035;-61
2022/08/27 09:21:32;;;;;;;8.23;2.22;;;21.70;94.60;;;;;;4973891;28;20049;-61
2022/08/27 09:23:58;;;;;;;13.07;2.55;;;21.50;99.90;;;;;;4973852;28;20046;-62
2022/08/27 09:26:29;;;;;;;9.73;2.45;;;21.60;95.70;;;;;;4973521;28;20063;-61
2022/08/27 09:29:15;;;;;;;7.15;2.15;;;21.90;96.30;;;;;;4974204;28;20150;-61
2022/08/27 09:31:54;;;;;;;7.10;2.25;;;22.40;95.40;;;;;;4973710;28;20507;-61
2022/08/27 09:34:21;;;;;;;11.45;2.65;;;22.40;94.10;;;;;;4973567;28;20058;-61
2022/08/27 09:36:59;;;;;;;8.13;2.50;;;22.30;94.00;;;;;;4973473;28;20051;-61
2022/08/27 09:39:34;;;;;;;8.27;2.47;;;22.30;94.60;;;;;;4975726;28;20065;-61
2022/08/27 09:42:02;;;;;;;12.60;2.30;;;22.30;94.60;;;;;;4977253;28;20077;-61
2022/08/27 09:44:28;;;;;;;9.57;2.42;;;22.30;94.50;;;;;;4977369;28;20042;-61
2022/08/27 09:46:58;;;;;;;10.88;2.35;;;21.10;97.90;;;;;;4976996;28;20546;-61
2022/08/27 09:49:25;;;;;;;10.88;2.40;;;21.80;94.90;;;;;;4976960;28;20455;-61
2022/08/27 09:51:52;;;;;;;8.85;2.28;;;21.70;99.90;;;;;;4977083;28;20403;-61
2022/08/27 09:54:26;;;;;;;8.48;2.25;;;22.90;97.90;;;;;;4977045;28;20517;-60
2022/08/27 09:56:52;;;;;;;8.82;2.00;;;21.80;93.90;;;;;;4976983;28;20043;-61
2022/08/27 09:59:29;;;;;;;6.38;2.20;;;21.80;94.10;;;;;;4976877;28;20517;-61
2022/08/27 10:02:12;;;;;;;6.93;2.10;;;21.60;95.70;;;;;;4976660;28;20451;-61
2022/08/27 10:04:39;;;;;;;6.40;2.20;;;21.70;93.30;;;;;;4976754;28;20049;-62
2022/08/27 10:07:35;;;;;;;8.30;2.38;;;21.60;93.90;;;;;;4977085;28;20118;-61
2022/08/27 10:10:10;;;;;;;8.52;2.60;;;21.70;97.10;;;;;;4976461;28;20043;-61
2022/08/27 10:12:51;;;;;;;5.17;2.00;;;21.50;93.60;;;;;;4976605;28;20057;-61
2022/08/27 10:15:17;;;;;;;7.68;2.20;;;21.50;93.60;;;;;;4976669;28;20121;-60
2022/08/27 10:18:08;;;;;;;7.25;2.22;;;21.50;93.90;;;;;;4976522;28;20077;-60
2022/08/27 10:21:07;;;;;;;9.88;2.28;;;22.10;96.00;;;;;;4976319;28;20126;-61
2022/08/27 10:23:51;;;;;;;9.73;2.38;;;23.00;96.00;;;;;;4955739;28;20518;-60
2022/08/27 10:26:32;;;;;;;11.00;2.25;;;22.50;92.60;;;;;;4926223;28;20051;-60
2022/08/27 10:29:13;;;;;;;6.65;2.20;;;23.10;91.90;;;;;;4947216;29;20051;-60
2022/08/27 10:32:04;;;;;;;9.15;2.20;;;23.00;94.20;;;;;;4954261;29;20066;-60
2022/08/27 10:34:38;;;;;;;11.70;2.17;;;22.90;91.60;;;;;;4955993;28;20047;-60
2022/08/27 10:37:37;;;;;;;13.02;2.55;;;22.30;95.50;;;;;;4955319;28;20047;-60
2022/08/27 10:40:35;;;;;;;9.45;2.25;;;22.20;95.80;;;;;;4955945;28;20114;-60
2022/08/27 10:43:21;;;;;;;10.00;2.38;;;22.10;92.90;;;;;;4943019;28;20051;-60
2022/08/27 10:46:20;;;;;;;8.85;2.30;;;22.10;93.10;;;;;;4970067;28;20090;-60
2022/08/27 10:48:56;;;;;;;8.07;2.50;;;22.00;95.50;;;;;;4955366;28;20090;-60
2022/08/27 10:51:43;;;;;;;6.40;2.10;;;21.80;95.20;;;;;;4954221;28;20130;-60
2022/08/27 10:54:20;;;;;;;9.95;2.25;;;20.80;96.00;;;;;;4955969;29;20380;-60
2022/08/27 10:56:59;;;;;;;8.57;2.40;;;21.90;92.70;;;;;;4955243;28;20451;-60
2022/08/27 10:59:28;;;;;;;8.15;2.15;;;22.00;93.20;;;;;;4955966;29;20527;-60
2022/08/27 11:02:15;;;;;;;10.05;2.10;;;22.10;93.50;;;;;;4955247;28;20595;-61
2022/08/27 11:04:48;;;;;;;9.82;2.40;;;22.20;93.40;;;;;;4955514;29;20039;-61
2022/08/27 11:07:22;;;;;;;9.77;2.00;;;22.30;93.00;;;;;;4955153;28;20083;-60
2022/08/27 11:09:50;;;;;;;7.20;2.15;;;21.90;96.20;;;;;;4954968;29;20047;-60
2022/08/27 11:12:22;;;;;;;17.92;2.13;;;22.20;95.80;;;;;;4953734;29;20055;-60
2022/08/27 11:14:55;;;;;;;7.70;2.00;;;22.10;92.70;;;;;;4954876;28;20041;-60
2022/08/27 11:17:34;;;;;;;10.18;2.28;;;22.00;95.40;;;;;;4955048;28;20413;-59
2022/08/27 11:20:15;;;;;;;8.00;2.45;;;22.30;94.90;;;;;;4955498;28;20395;-60
2022/08/27 11:23:01;;;;;;;9.35;2.20;;;23.00;95.10;;;;;;4953939;28;20051;-58
2022/08/27 11:25:34;;;;;;;12.82;2.30;;;22.10;94.70;;;;;;4957906;28;20069;-60
2022/08/27 11:28:02;;;;;;;6.57;2.25;;;22.10;95.10;;;;;;4975119;28;20054;-60
2022/08/27 11:30:41;;;;;;;6.95;2.20;;;22.30;95.20;;;;;;4975201;28;20130;-60
2022/08/27 11:33:24;;;;;;;7.32;1.95;;;22.20;91.70;;;;;;4975024;28;20054;-61
2022/08/27 11:36:08;;;;;;;9.43;2.15;;;22.20;95.80;;;;;;4975259;28;20149;-60
2022/08/27 11:38:43;;;;;;;11.77;2.25;;;22.10;91.90;;;;;;4973805;28;20053;-61
2022/08/27 11:41:48;;;;;;;8.15;2.20;;;22.00;94.50;;;;;;4973026;28;20046;-63
2022/08/27 11:44:16;;;;;;;7.88;1.95;;;22.10;91.00;;;;;;4974507;28;20039;-60
2022/08/27 11:46:52;;;;;;;10.43;2.15;;;22.50;94.20;;;;;;4975124;28;20078;-61
2022/08/27 11:49:26;;;;;;;9.82;2.38;;;22.60;93.40;;;;;;4974582;28;20057;-60
2022/08/27 11:52:01;;;;;;;10.90;2.13;;;22.70;94.40;;;;;;4974602;28;20124;-61
2022/08/27 11:54:30;;;;;;;;;;;22.20;90.70;;;;;;4973768;28;20137;-61
2022/08/27 11:56:56;;;;;;;9.32;2.33;;;21.70;94.90;;;;;;4974672;28;19917;-61
2022/08/27 11:59:31;;;;;;;10.48;2.35;;;22.30;91.30;;;;;;4974744;28;20039;-61
2022/08/27 12:02:22;;;;;;;7.32;2.10;;;23.40;93.80;;;;;;4973118;28;20177;-60
2022/08/27 12:04:48;;;;;;;7.95;2.13;;;22.70;91.10;;;;;;4956897;28;20042;-61
2022/08/27 12:07:15;;;;;;;4.88;1.90;;;22.80;90.80;;;;;;4957022;28;20376;-61
2022/08/27 12:09:50;;;;;;;10.25;2.10;;;23.00;92.80;;;;;;4973506;28;20054;-61
2022/08/27 12:12:37;;;;;;;9.85;1.98;;;22.90;90.20;;;;;;4973411;28;20078;-61
2022/08/27 12:15:17;;;;;;;6.60;1.92;;;22.90;89.20;;;;;;4941057;28;20043;-61
2022/08/27 12:18:20;;;;;;;12.77;2.30;;;22.90;87.50;;;;;;4974406;28;20050;-61
2022/08/27 12:21:09;;;;;;;9.68;2.30;;;22.90;87.80;;;;;;4974501;28;20046;-61
2022/08/27 12:24:04;;;;;;;5.88;2.15;;;22.80;88.60;;;;;;4974287;28;20042;-61
2022/08/27 12:26:32;;;;;;;5.93;2.07;;;23.00;91.20;;;;;;4974162;28;20122;-61
2022/08/27 12:29:27;;;;;;;7.68;1.95;;;23.20;87.60;;;;;;4974445;28;20122;-60
2022/08/27 12:32:08;;;;;;;9.25;2.10;;;23.10;90.90;;;;;;4956884;28;20047;-60
2022/08/27 12:35:02;;;;;;;5.70;2.00;;;23.10;85.40;;;;;;4974385;28;20046;-62
2022/08/27 12:37:37;;;;;;;10.18;2.65;;;23.30;84.00;;;;;;4957639;28;20043;-62
2022/08/27 12:40:13;;;;;;;6.38;1.92;;;23.40;81.60;;;;;;4974082;28;20101;-62
2022/08/27 12:42:40;;;;;;;9.65;2.28;;;23.40;82.10;;;;;;4974335;28;20133;-62
2022/08/27 12:45:07;;;;;;;8.35;2.15;;;23.50;89.70;;;;;;4974095;28;20042;-62
2022/08/27 12:47:40;;;;;;;10.60;2.28;;;23.30;84.50;;;;;;4974233;28;20400;-62
2022/08/27 12:50:07;;;;;;;9.75;2.00;;;23.20;90.90;;;;;;4974083;28;20046;-62
2022/08/27 12:53:00;;;;;;;8.02;2.30;;;23.00;90.80;;;;;;4973824;28;20061;-62
2022/08/27 12:55:48;;;;;;;7.10;2.10;;;23.10;84.20;;;;;;4972892;28;20483;-62
2022/08/27 12:58:29;;;;;;;7.57;2.60;;;23.00;91.50;;;;;;4972762;28;20055;-62
2022/08/27 13:01:12;;;;;;;9.23;2.30;;;23.00;83.70;;;;;;4973928;28;20047;-62
2022/08/27 13:03:42;;;;;;;6.97;2.05;;;23.20;82.80;;;;;;4974045;28;20043;-62
2022/08/27 13:06:29;;;;;;;7.88;1.88;;;23.20;88.60;;;;;;4974159;28;20058;-62
2022/08/27 13:09:00;;;;;;;4.80;1.95;;;23.20;81.40;;;;;;4973956;28;20094;-62
2022/08/27 13:11:29;;;;;;;7.78;2.03;;;23.10;83.20;;;;;;4974316;28;20085;-62
2022/08/27 13:14:09;;;;;;;6.95;1.90;;;23.00;83.30;;;;;;4974918;28;20046;-62
2022/08/27 13:16:45;;;;;;;6.25;2.20;;;24.00;90.30;;;;;;4960495;28;20455;-62
2022/08/27 13:19:28;;;;;;;8.45;2.10;;;23.60;89.00;;;;;;4977640;28;20046;-62